Time;durP1;ratioP1;P1;durP2;ratioP2;P2;SDS_P1;SDS_P2;PMS_P1;PMS_P2;Temp;Humidity;BMP_temperature;BMP_pressure;BME280_temperature;BME280_humidity;BME280_pressure;Samples;Min_cycle;Max_cycle;Signal;HPM_P1;HPM_P2
2022/07/29 00:00:45;;;;;;;69.03;4.00;;;21.20;1.00;;;;;;5086365;28;20198;-82
2022/07/29 00:03:12;;;;;;;66.77;3.60;;;21.20;1.00;;;;;;5086065;28;20403;-82
2022/07/29 00:05:41;;;;;;;67.40;3.70;;;21.20;1.00;;;;;;5086742;28;20758;-82
2022/07/29 00:08:07;;;;;;;68.40;3.53;;;21.20;1.00;;;;;;5086738;28;20475;-82
2022/07/29 00:10:34;;;;;;;67.93;3.90;;;21.20;1.00;;;;;;5087134;28;20410;-83
2022/07/29 00:13:00;;;;;;;66.07;3.50;;;21.20;1.00;;;;;;5085860;28;20402;-82
2022/07/29 00:15:25;;;;;;;68.20;3.83;;;21.10;1.00;;;;;;5084402;28;20467;-82
2022/07/29 00:17:51;;;;;;;67.90;3.63;;;21.10;1.00;;;;;;5086148;28;20545;-82
2022/07/29 00:20:17;;;;;;;72.73;3.87;;;21.00;1.00;;;;;;5086724;28;20223;-82
2022/07/29 00:22:43;;;;;;;69.43;4.07;;;21.00;1.00;;;;;;5087016;28;20161;-82
2022/07/29 00:25:09;;;;;;;67.47;4.50;;;21.00;1.00;;;;;;5084548;28;20769;-82
2022/07/29 00:27:38;;;;;;;71.17;4.30;;;21.00;1.00;;;;;;5084065;28;20195;-82
2022/07/29 00:30:05;;;;;;;68.00;4.00;;;21.00;1.00;;;;;;5084885;28;20412;-83
2022/07/29 00:32:31;;;;;;;67.43;3.80;;;21.00;1.00;;;;;;5084288;28;20398;-82
2022/07/29 00:37:41;;;;;;;67.47;4.20;;;21.00;1.00;;;;;;5085452;28;20206;-82
2022/07/29 00:40:07;;;;;;;67.83;4.00;;;20.90;1.00;;;;;;5085572;28;20897;-82
2022/07/29 00:42:43;;;;;;;66.53;4.10;;;20.90;1.00;;;;;;5086221;28;20156;-82
2022/07/29 00:45:09;;;;;;;68.63;4.20;;;20.90;1.00;;;;;;5084097;28;20402;-82
2022/07/29 00:47:35;;;;;;;67.87;3.40;;;20.80;1.00;;;;;;5085035;28;20418;-82
2022/07/29 00:50:00;;;;;;;70.63;4.07;;;20.80;1.00;;;;;;5086280;28;20414;-83
2022/07/29 00:52:27;;;;;;;69.23;3.90;;;20.90;1.00;;;;;;5091036;28;20199;-84
2022/07/29 00:54:52;;;;;;;67.60;4.17;;;20.90;1.00;;;;;;5087067;28;20197;-84
2022/07/29 00:57:18;;;;;;;71.30;4.20;;;20.90;1.00;;;;;;5081068;28;20455;-82
2022/07/29 00:59:44;;;;;;;66.80;3.53;;;20.90;1.00;;;;;;5087495;28;20160;-84
2022/07/29 01:02:10;;;;;;;69.97;3.70;;;20.90;1.00;;;;;;5086036;28;20167;-84
2022/07/29 01:04:35;;;;;;;68.83;4.73;;;20.80;1.00;;;;;;5082564;28;20573;-82
2022/07/29 01:07:02;;;;;;;68.60;4.90;;;20.80;1.00;;;;;;5081619;28;20770;-82
2022/07/29 01:09:30;;;;;;;68.00;4.73;;;20.80;1.80;;;;;;5087089;28;20184;-83
2022/07/29 01:11:57;;;;;;;67.10;4.13;;;20.80;2.20;;;;;;5086282;28;20398;-82
2022/07/29 01:14:23;;;;;;;66.77;3.47;;;20.80;3.80;;;;;;5082299;28;20912;-82
2022/07/29 01:16:54;;;;;;;66.40;3.60;;;20.80;3.10;;;;;;5082006;28;20470;-82
2022/07/29 01:19:33;;;;;;;68.37;4.13;;;20.80;3.70;;;;;;5086466;28;20485;-84
2022/07/29 01:22:02;;;;;;;67.40;4.17;;;20.70;4.90;;;;;;5085802;28;20373;-82
2022/07/29 01:24:37;;;;;;;66.20;3.20;;;20.70;5.90;;;;;;5080819;28;20801;-82
2022/07/29 01:27:36;;;;;;;70.20;5.03;;;20.70;6.60;;;;;;5086419;28;20741;-82
2022/07/29 01:30:03;;;;;;;66.90;4.23;;;20.70;7.60;;;;;;5083401;28;20414;-82
2022/07/29 01:32:33;;;;;;;66.10;4.30;;;20.70;8.30;;;;;;5085621;28;20406;-82
2022/07/29 01:35:10;;;;;;;67.30;4.20;;;20.60;9.00;;;;;;5079903;28;20409;-82
2022/07/29 01:37:51;;;;;;;68.10;3.80;;;20.60;9.60;;;;;;5086049;28;20460;-82
2022/07/29 01:40:24;;;;;;;73.30;4.37;;;20.70;10.10;;;;;;5085752;28;20456;-82
2022/07/29 01:42:54;;;;;;;66.10;3.77;;;20.60;11.00;;;;;;5079243;28;20404;-82
2022/07/29 01:45:25;;;;;;;67.30;4.27;;;20.50;11.80;;;;;;5087665;28;20777;-82
2022/07/29 01:48:19;;;;;;;67.37;4.10;;;20.50;12.90;;;;;;5084196;28;20434;-82
2022/07/29 01:51:07;;;;;;;68.83;5.07;;;20.50;14.10;;;;;;5083368;28;20464;-82
2022/07/29 01:53:42;;;;;;;68.03;4.90;;;20.50;14.40;;;;;;5088906;28;20770;-82
2022/07/29 01:56:10;;;;;;;65.87;4.13;;;20.40;14.60;;;;;;5088032;28;20397;-82
2022/07/29 01:58:39;;;;;;;66.20;3.83;;;20.40;15.00;;;;;;5087373;28;20451;-83
2022/07/29 02:01:06;;;;;;;65.67;3.97;;;20.30;14.50;;;;;;5089964;28;20435;-82
2022/07/29 02:03:35;;;;;;;66.60;4.47;;;20.30;14.00;;;;;;5084702;28;20406;-82
2022/07/29 02:06:03;;;;;;;70.57;4.73;;;20.30;14.10;;;;;;5087963;28;20402;-82
2022/07/29 02:08:30;;;;;;;67.27;4.30;;;20.30;14.10;;;;;;5087351;28;20423;-82
2022/07/29 02:10:57;;;;;;;66.90;4.47;;;20.30;15.50;;;;;;5083051;28;20408;-82
2022/07/29 02:13:24;;;;;;;68.70;3.87;;;20.30;16.90;;;;;;5081073;28;20422;-82
2022/07/29 02:15:52;;;;;;;68.17;4.77;;;20.20;17.40;;;;;;5082572;28;20410;-82
2022/07/29 02:18:20;;;;;;;67.13;4.27;;;20.30;17.20;;;;;;5083084;28;20809;-82
2022/07/29 02:20:49;;;;;;;65.60;4.27;;;20.20;17.60;;;;;;5082410;28;20928;-82
2022/07/29 02:23:19;;;;;;;67.10;4.50;;;20.20;18.70;;;;;;5088610;28;20394;-82
2022/07/29 02:25:47;;;;;;;67.50;4.90;;;20.20;18.50;;;;;;5087305;28;20395;-82
2022/07/29 02:28:15;;;;;;;68.83;4.57;;;20.20;18.80;;;;;;5083648;28;20496;-83
2022/07/29 02:30:42;;;;;;;66.80;4.47;;;20.20;18.80;;;;;;5088358;28;20459;-82
2022/07/29 02:33:12;;;;;;;67.47;4.50;;;20.10;18.60;;;;;;5083640;28;20403;-82
2022/07/29 02:35:40;;;;;;;68.90;4.10;;;20.10;19.10;;;;;;5083223;28;20772;-82
2022/07/29 02:40:51;;;;;;;66.37;4.10;;;20.10;20.70;;;;;;5088145;28;20415;-82
2022/07/29 02:43:18;;;;;;;76.43;4.80;;;20.00;22.90;;;;;;5088559;28;20983;-82
2022/07/29 02:45:47;;;;;;;69.17;5.10;;;20.00;23.50;;;;;;5082264;28;20763;-82
2022/07/29 02:48:16;;;;;;;67.00;4.90;;;19.90;24.30;;;;;;5146024;22;20522;-81
2022/07/29 02:50:50;;;;;;;67.70;4.70;;;19.90;25.40;;;;;;5063167;28;20478;-81
2022/07/29 02:53:19;;;;;;;72.40;5.33;;;19.80;25.90;;;;;;5080823;28;20868;-81
2022/07/29 02:55:51;;;;;;;74.20;5.07;;;19.80;26.10;;;;;;5081341;28;20388;-81
2022/07/29 02:58:28;;;;;;;94.40;5.53;;;19.80;26.30;;;;;;5080941;28;20536;-81
2022/07/29 03:01:00;;;;;;;67.60;4.90;;;19.80;26.30;;;;;;5081219;28;20390;-81
2022/07/29 03:03:34;;;;;;;67.00;4.80;;;19.80;26.00;;;;;;5081263;28;20377;-81
2022/07/29 03:06:01;;;;;;;70.63;5.00;;;19.80;27.10;;;;;;5063251;28;20396;-81
2022/07/29 03:08:27;;;;;;;68.90;5.10;;;19.70;27.50;;;;;;5081249;28;20416;-81
2022/07/29 03:10:53;;;;;;;69.07;5.70;;;19.70;27.00;;;;;;5081671;28;20425;-81
2022/07/29 03:13:23;;;;;;;67.30;4.97;;;19.70;24.30;;;;;;5080973;28;20756;-81
2022/07/29 03:15:49;;;;;;;66.37;5.63;;;19.70;24.40;;;;;;5081160;28;20402;-81
2022/07/29 03:18:15;;;;;;;66.87;5.30;;;19.60;24.70;;;;;;5080347;28;20448;-81
2022/07/29 03:20:42;;;;;;;70.47;5.10;;;19.50;25.10;;;;;;5081008;28;20411;-81
2022/07/29 03:23:08;;;;;;;69.20;5.83;;;19.60;24.00;;;;;;5080809;28;20644;-81
2022/07/29 03:25:34;;;;;;;67.37;6.37;;;19.50;23.50;;;;;;5081218;28;20420;-81
2022/07/29 03:28:00;;;;;;;69.67;5.93;;;19.60;23.00;;;;;;5062976;28;20505;-81
2022/07/29 03:30:26;;;;;;;74.87;6.80;;;19.40;21.90;;;;;;5062956;28;20774;-81
2022/07/29 03:32:53;;;;;;;67.63;5.97;;;19.50;22.60;;;;;;5081190;28;20403;-81
2022/07/29 03:35:19;;;;;;;67.90;6.13;;;19.60;20.90;;;;;;5062967;28;20499;-81
2022/07/29 03:37:45;;;;;;;66.50;6.00;;;19.50;21.10;;;;;;5080704;28;20446;-81
2022/07/29 03:40:18;;;;;;;70.10;7.30;;;19.50;20.70;;;;;;5081428;28;20925;-81
2022/07/29 03:42:45;;;;;;;68.40;6.87;;;19.50;19.80;;;;;;5080873;28;20376;-81
2022/07/29 03:45:15;;;;;;;66.77;5.50;;;19.50;19.60;;;;;;5080521;28;20498;-81
2022/07/29 03:47:49;;;;;;;69.10;5.93;;;19.60;16.90;;;;;;5080421;28;20810;-81
2022/07/29 03:50:15;;;;;;;69.53;5.73;;;19.50;16.60;;;;;;5062780;28;20427;-81
2022/07/29 03:52:42;;;;;;;69.27;5.10;;;19.50;16.10;;;;;;5080726;28;20400;-81
2022/07/29 03:55:09;;;;;;;69.70;5.77;;;19.50;14.90;;;;;;5080703;28;20472;-81
2022/07/29 03:57:35;;;;;;;66.87;4.90;;;19.50;13.50;;;;;;5080601;28;20449;-81
2022/07/29 04:00:05;;;;;;;70.50;5.13;;;19.50;12.90;;;;;;5063027;28;20417;-81
2022/07/29 04:02:32;;;;;;;67.97;4.60;;;19.50;12.60;;;;;;5062592;28;20413;-81
2022/07/29 04:04:58;;;;;;;69.60;6.10;;;19.50;11.00;;;;;;5062606;28;20403;-81
2022/07/29 04:07:23;;;;;;;69.27;5.50;;;19.30;10.80;;;;;;5079970;28;20403;-81
2022/07/29 04:09:49;;;;;;;70.57;6.03;;;19.30;11.50;;;;;;5062466;28;20172;-81
2022/07/29 04:12:15;;;;;;;67.70;4.97;;;19.40;10.60;;;;;;5061724;28;20174;-82
2022/07/29 04:14:41;;;;;;;74.90;4.73;;;19.40;10.10;;;;;;5080300;28;20251;-82
2022/07/29 04:17:06;;;;;;;67.70;4.77;;;19.40;8.10;;;;;;5061555;28;20473;-82
2022/07/29 04:19:32;;;;;;;70.10;5.10;;;19.40;8.30;;;;;;5079966;28;20185;-81
2022/07/29 04:21:59;;;;;;;67.90;4.60;;;19.50;6.90;;;;;;5080440;28;20181;-82
2022/07/29 04:24:25;;;;;;;66.10;4.10;;;19.40;5.70;;;;;;5079882;28;20398;-81
2022/07/29 04:26:51;;;;;;;67.93;5.47;;;19.40;7.10;;;;;;5079742;28;20439;-81
2022/07/29 04:29:17;;;;;;;67.10;5.13;;;19.40;6.60;;;;;;5079995;28;20430;-81
2022/07/29 04:31:43;;;;;;;67.20;4.73;;;19.50;5.90;;;;;;5079548;28;20164;-81
2022/07/29 04:34:09;;;;;;;69.60;5.20;;;19.50;5.30;;;;;;5079305;28;20163;-81
2022/07/29 04:36:35;;;;;;;70.50;4.90;;;19.50;6.20;;;;;;5061325;28;20430;-81
2022/07/29 04:39:01;;;;;;;69.87;4.00;;;19.50;5.80;;;;;;5079330;28;20450;-81
2022/07/29 04:41:27;;;;;;;67.37;5.03;;;19.60;5.10;;;;;;5060912;28;20164;-81
2022/07/29 04:43:53;;;;;;;70.50;4.43;;;19.60;5.10;;;;;;5062253;28;20168;-81
2022/07/29 04:46:19;;;;;;;68.27;4.40;;;19.60;3.90;;;;;;5079487;28;20739;-82
2022/07/29 04:48:46;;;;;;;72.87;4.27;;;19.60;3.80;;;;;;5079101;28;20433;-81
2022/07/29 04:51:15;;;;;;;69.17;4.20;;;19.70;5.10;;;;;;5078707;28;20412;-82
2022/07/29 04:53:40;;;;;;;67.97;4.10;;;19.70;3.20;;;;;;5079193;28;20824;-81
2022/07/29 04:56:09;;;;;;;68.27;3.50;;;19.70;2.70;;;;;;5060454;28;20438;-81
2022/07/29 04:58:35;;;;;;;67.57;3.50;;;19.70;2.50;;;;;;5060052;28;20200;-81
2022/07/29 05:01:01;;;;;;;68.63;3.80;;;19.70;2.40;;;;;;5061225;28;20497;-81
2022/07/29 05:03:27;;;;;;;70.33;3.50;;;19.70;1.00;;;;;;5060780;28;20428;-81
2022/07/29 05:05:53;;;;;;;69.03;3.70;;;19.70;2.10;;;;;;5061788;28;20426;-81
2022/07/29 05:08:18;;;;;;;67.17;4.00;;;19.70;1.70;;;;;;5078912;28;20487;-81
2022/07/29 05:10:44;;;;;;;68.33;4.03;;;19.70;2.40;;;;;;5079179;28;20493;-81
2022/07/29 05:13:10;;;;;;;68.97;3.80;;;19.70;2.10;;;;;;5078778;28;20160;-81
2022/07/29 05:15:36;;;;;;;70.20;3.93;;;19.70;3.00;;;;;;5078681;28;20739;-81
2022/07/29 05:18:03;;;;;;;69.60;4.10;;;19.80;2.20;;;;;;5077761;28;20196;-81
2022/07/29 05:20:30;;;;;;;67.47;4.07;;;19.90;2.40;;;;;;5078409;28;20434;-81
2022/07/29 05:22:57;;;;;;;69.40;4.80;;;20.00;2.60;;;;;;5060961;28;20435;-81
2022/07/29 05:25:23;;;;;;;70.17;4.53;;;20.00;4.50;;;;;;5060530;28;20401;-81
2022/07/29 05:27:49;;;;;;;68.40;4.87;;;20.00;4.90;;;;;;5078465;28;20438;-81
2022/07/29 05:30:15;;;;;;;68.37;4.50;;;20.00;5.20;;;;;;5078398;28;20394;-81
2022/07/29 05:32:40;;;;;;;69.90;3.90;;;19.90;5.50;;;;;;5078552;28;20462;-82
2022/07/29 05:35:09;;;;;;;66.60;4.53;;;20.00;4.90;;;;;;5079152;28;20534;-81
2022/07/29 05:37:35;;;;;;;69.83;4.83;;;19.90;5.70;;;;;;5079105;28;20200;-81
2022/07/29 05:40:02;;;;;;;70.27;4.80;;;19.90;6.40;;;;;;5079673;28;20889;-81
2022/07/29 05:42:28;;;;;;;68.17;4.70;;;19.90;6.90;;;;;;5079302;28;20163;-81
2022/07/29 05:44:54;;;;;;;70.93;5.00;;;19.90;7.10;;;;;;5079167;28;20403;-82
2022/07/29 05:47:21;;;;;;;71.60;5.40;;;20.00;7.90;;;;;;5060870;28;20490;-81
2022/07/29 05:49:46;;;;;;;67.87;4.70;;;20.00;8.30;;;;;;5060259;28;20440;-82
2022/07/29 05:52:13;;;;;;;68.37;5.03;;;20.00;7.90;;;;;;5077952;28;20412;-81
2022/07/29 05:54:39;;;;;;;69.47;6.07;;;20.00;10.30;;;;;;5077813;28;20174;-80
2022/07/29 05:57:05;;;;;;;69.53;4.73;;;19.90;10.10;;;;;;5059451;28;20962;-80
2022/07/29 05:59:35;;;;;;;69.40;5.63;;;20.00;9.50;;;;;;5076868;28;20420;-80
2022/07/29 06:02:01;;;;;;;70.70;5.70;;;20.10;9.90;;;;;;5058824;28;20989;-80
2022/07/29 06:04:27;;;;;;;75.53;5.20;;;20.10;12.30;;;;;;5076834;28;20437;-81
2022/07/29 06:06:53;;;;;;;69.23;5.20;;;20.20;10.90;;;;;;5059754;28;20152;-81
2022/07/29 06:09:19;;;;;;;66.07;4.63;;;20.20;11.30;;;;;;5059719;28;20595;-81
2022/07/29 06:11:44;;;;;;;68.50;5.07;;;20.20;13.10;;;;;;5059170;28;20402;-80
2022/07/29 06:14:14;;;;;;;70.30;5.20;;;20.10;17.40;;;;;;5078719;28;20607;-83
2022/07/29 06:16:39;;;;;;;68.57;5.40;;;20.10;17.30;;;;;;5079112;28;20160;-82
2022/07/29 06:19:05;;;;;;;67.33;4.73;;;19.90;19.70;;;;;;5062308;28;20452;-83
2022/07/29 06:21:31;;;;;;;68.73;5.33;;;19.90;20.10;;;;;;5062101;28;20167;-83
2022/07/29 06:23:56;;;;;;;69.27;6.20;;;19.80;21.70;;;;;;5081606;28;20160;-83
2022/07/29 06:26:22;;;;;;;67.27;5.27;;;19.70;21.80;;;;;;5063867;28;20169;-83
2022/07/29 06:28:48;;;;;;;68.37;4.80;;;19.80;21.40;;;;;;5082332;28;20293;-83
2022/07/29 06:31:14;;;;;;;80.23;5.73;;;19.70;22.00;;;;;;5083362;28;20412;-83
2022/07/29 06:33:40;;;;;;;72.40;5.97;;;19.80;21.40;;;;;;5067600;28;20161;-83
2022/07/29 06:36:06;;;;;;;66.67;5.00;;;19.70;22.80;;;;;;5084613;28;20163;-83
2022/07/29 06:38:33;;;;;;;73.07;5.93;;;19.70;24.60;;;;;;5066434;28;20208;-83
2022/07/29 06:43:39;;;;;;;70.00;4.97;;;19.70;26.10;;;;;;5087018;28;20376;-83
2022/07/29 06:46:11;;;;;;;69.30;4.50;;;19.70;26.30;;;;;;5067815;28;20403;-83
2022/07/29 06:48:37;;;;;;;68.37;4.73;;;19.70;27.30;;;;;;5068735;28;20968;-83
2022/07/29 06:51:04;;;;;;;67.60;7.27;;;19.70;34.70;;;;;;5091090;28;20392;-83
2022/07/29 06:53:31;;;;;;;73.07;8.20;;;19.70;42.40;;;;;;5070956;28;20405;-82
2022/07/29 06:55:58;;;;;;;72.30;8.50;;;19.60;60.30;;;;;;5089621;28;20407;-83
2022/07/29 06:58:25;;;;;;;68.80;6.40;;;19.60;68.50;;;;;;5089713;28;20994;-84
2022/07/29 07:00:51;;;;;;;73.10;6.70;;;19.40;77.80;;;;;;5069252;28;20434;-83
2022/07/29 07:03:25;;;;;;;68.60;6.40;;;19.40;81.80;;;;;;5086906;28;20404;-83
2022/07/29 07:05:53;;;;;;;69.43;6.93;;;19.40;84.30;;;;;;5087655;28;20152;-84
2022/07/29 07:08:19;;;;;;;67.37;6.00;;;19.40;87.90;;;;;;5069074;28;20435;-84
2022/07/29 07:10:45;;;;;;;68.20;6.57;;;19.50;81.90;;;;;;5071498;28;20415;-84
2022/07/29 07:13:11;;;;;;;68.17;7.63;;;19.50;82.90;;;;;;5091966;28;20445;-84
2022/07/29 07:15:37;;;;;;;69.07;8.03;;;19.60;86.70;;;;;;5088931;28;20401;-84
2022/07/29 07:18:04;;;;;;;68.93;8.03;;;19.70;88.00;;;;;;5088867;28;20459;-84
2022/07/29 07:20:31;;;;;;;70.17;8.03;;;19.80;89.50;;;;;;5089748;28;20408;-84
2022/07/29 07:22:57;;;;;;;71.07;8.57;;;19.90;87.90;;;;;;5070853;28;20425;-85
2022/07/29 07:25:22;;;;;;;70.73;6.63;;;19.90;87.00;;;;;;5072096;28;20440;-84
2022/07/29 07:27:48;;;;;;;74.00;7.00;;;20.00;85.10;;;;;;5067559;28;20201;-84
2022/07/29 07:30:14;;;;;;;68.30;7.10;;;20.00;87.70;;;;;;5070651;28;20534;-84
2022/07/29 07:32:40;;;;;;;74.03;7.70;;;20.00;85.90;;;;;;5071850;28;20201;-84
2022/07/29 07:35:08;;;;;;;69.50;9.70;;;20.10;92.10;;;;;;5090462;28;20622;-84
2022/07/29 07:37:34;;;;;;;69.37;10.30;;;19.90;94.20;;;;;;5090351;28;20186;-84
2022/07/29 07:40:00;;;;;;;69.60;11.27;;;19.90;93.80;;;;;;5072978;28;20477;-85
2022/07/29 07:42:26;;;;;;;72.67;11.90;;;19.90;95.00;;;;;;5072436;28;20409;-84
2022/07/29 07:44:52;;;;;;;70.20;12.73;;;19.90;96.40;;;;;;5085373;28;20438;-84
2022/07/29 07:47:19;;;;;;;72.13;13.57;;;19.90;94.80;;;;;;5067818;28;20419;-85
2022/07/29 07:49:49;;;;;;;79.10;14.27;;;19.90;97.60;;;;;;5068549;28;20185;-84
2022/07/29 07:52:18;;;;;;;70.47;14.97;;;19.80;98.30;;;;;;5087310;28;20418;-84
2022/07/29 07:54:44;;;;;;;72.47;14.67;;;19.70;99.20;;;;;;5068529;28;20422;-84
2022/07/29 07:57:11;;;;;;;70.80;15.47;;;19.50;99.90;;;;;;5067248;28;20435;-84
2022/07/29 07:59:36;;;;;;;79.13;13.90;;;19.50;99.90;;;;;;5069474;28;20682;-84
2022/07/29 08:02:02;;;;;;;76.53;12.90;;;19.60;99.90;;;;;;5088370;28;20436;-83
2022/07/29 08:04:28;;;;;;;74.60;13.57;;;19.60;97.60;;;;;;5088146;28;20170;-83
2022/07/29 08:06:55;;;;;;;70.23;15.27;;;19.70;98.20;;;;;;5087502;28;20394;-83
2022/07/29 08:09:21;;;;;;;74.60;15.30;;;19.70;97.10;;;;;;5069510;28;20194;-83
2022/07/29 08:11:47;;;;;;;68.57;14.60;;;19.80;98.00;;;;;;5088275;28;20810;-83
2022/07/29 08:14:13;;;;;;;68.30;12.40;;;19.80;99.40;;;;;;5074625;28;20992;-83
2022/07/29 08:16:42;;;;;;;71.57;13.90;;;19.70;99.00;;;;;;5072215;28;20174;-84
2022/07/29 08:19:08;;;;;;;77.10;16.40;;;19.80;97.80;;;;;;5074461;28;20465;-85
2022/07/29 08:21:34;;;;;;;70.90;13.03;;;19.80;97.80;;;;;;5071392;28;20402;-85
2022/07/29 08:26:44;;;;;;;72.97;14.20;;;19.80;98.10;;;;;;5089160;28;20161;-84
2022/07/29 08:29:10;;;;;;;74.47;15.87;;;19.80;97.90;;;;;;5071511;28;20437;-84
2022/07/29 08:31:37;;;;;;;70.77;13.93;;;19.70;98.50;;;;;;5070391;28;20204;-84
2022/07/29 08:34:03;;;;;;;70.00;16.30;;;19.80;97.30;;;;;;5089808;28;20184;-84
2022/07/29 08:36:29;;;;;;;76.43;20.47;;;19.90;99.90;;;;;;5070796;28;20451;-84
2022/07/29 08:38:55;;;;;;;77.83;16.60;;;20.00;99.80;;;;;;5087406;28;20464;-84
2022/07/29 08:41:24;;;;;;;73.77;16.50;;;20.10;99.90;;;;;;5069689;28;20448;-84
2022/07/29 08:43:51;;;;;;;73.63;14.77;;;20.20;99.90;;;;;;5071309;28;20173;-84
2022/07/29 08:46:17;;;;;;;73.70;16.90;;;20.20;99.90;;;;;;5072383;28;20852;-84
2022/07/29 08:48:43;;;;;;;70.60;14.40;;;20.20;99.90;;;;;;5069936;28;20454;-85
2022/07/29 08:51:17;;;;;;;76.37;15.80;;;20.20;99.90;;;;;;5151186;22;20573;-82
2022/07/29 08:53:44;;;;;;;70.47;13.33;;;20.20;99.90;;;;;;5075793;28;20377;-82
2022/07/29 08:56:14;;;;;;;70.40;14.83;;;20.20;99.90;;;;;;5075946;28;20489;-82
2022/07/29 08:58:41;;;;;;;74.17;16.17;;;20.20;99.90;;;;;;5076073;28;20458;-82
2022/07/29 09:01:08;;;;;;;70.20;13.20;;;20.10;99.90;;;;;;5074964;28;20411;-83
2022/07/29 09:03:36;;;;;;;70.97;14.00;;;20.10;99.90;;;;;;5076319;28;20422;-83
2022/07/29 09:06:03;;;;;;;70.37;15.27;;;20.10;99.90;;;;;;5076148;28;20392;-83
2022/07/29 09:08:31;;;;;;;71.57;14.47;;;20.10;99.90;;;;;;5074333;28;20982;-82
2022/07/29 09:10:58;;;;;;;71.57;12.93;;;20.10;99.90;;;;;;5075615;28;20405;-83
2022/07/29 09:13:24;;;;;;;72.00;13.47;;;20.20;99.90;;;;;;5076195;28;20398;-83
2022/07/29 09:15:50;;;;;;;70.07;14.33;;;20.20;99.90;;;;;;5076152;28;20466;-82
2022/07/29 09:18:38;;;;;;;70.80;12.60;;;20.30;99.90;;;;;;5075803;28;20532;-82
2022/07/29 09:24:06;;;;;;;74.07;12.00;;;20.70;99.90;;;;;;5075710;28;20378;-82
2022/07/29 09:26:34;;;;;;;69.73;7.50;;;21.00;99.90;;;;;;5075933;28;20422;-82
2022/07/29 09:29:07;;;;;;;68.00;6.40;;;21.20;94.90;;;;;;5074557;28;20431;-82
2022/07/29 09:31:35;;;;;;;70.80;8.50;;;21.30;84.90;;;;;;5074321;28;20421;-82
2022/07/29 09:34:01;;;;;;;73.70;9.70;;;21.40;71.60;;;;;;5075864;28;20482;-82
2022/07/29 09:36:27;;;;;;;71.97;10.20;;;21.50;68.40;;;;;;5074414;28;20454;-82
2022/07/29 09:39:02;;;;;;;69.90;8.00;;;21.60;66.20;;;;;;5075453;28;20200;-82
2022/07/29 09:41:29;;;;;;;72.40;9.47;;;21.70;67.90;;;;;;5074967;28;20167;-82
2022/07/29 09:43:59;;;;;;;74.60;8.93;;;21.80;68.10;;;;;;5075408;28;20424;-82
2022/07/29 09:46:26;;;;;;;72.97;8.53;;;21.90;69.90;;;;;;5073542;28;20861;-82
2022/07/29 09:49:12;;;;;;;72.00;8.37;;;22.00;60.20;;;;;;5075359;28;20437;-82
2022/07/29 09:51:40;;;;;;;70.13;7.17;;;22.20;51.10;;;;;;5075268;28;20414;-82
2022/07/29 09:54:27;;;;;;;74.63;6.97;;;22.30;48.70;;;;;;5075631;28;20489;-82
2022/07/29 09:56:54;;;;;;;74.93;7.90;;;22.40;43.00;;;;;;5075022;28;20400;-82
2022/07/29 09:59:22;;;;;;;70.37;5.13;;;22.40;42.90;;;;;;5075448;28;20514;-82
2022/07/29 10:01:49;;;;;;;66.63;4.83;;;22.40;40.60;;;;;;5074808;28;20394;-82
2022/07/29 10:04:15;;;;;;;70.87;3.90;;;22.50;36.50;;;;;;5075556;28;20398;-81
2022/07/29 10:07:01;;;;;;;68.57;4.20;;;22.50;31.30;;;;;;5079448;28;20398;-82
2022/07/29 10:09:27;;;;;;;69.50;4.10;;;22.50;22.40;;;;;;5079417;28;20495;-81
2022/07/29 10:12:08;;;;;;;71.87;3.80;;;22.60;24.50;;;;;;5077231;28;20433;-82
2022/07/29 10:14:35;;;;;;;68.73;3.70;;;22.70;19.00;;;;;;5078865;28;20176;-82
2022/07/29 10:17:02;;;;;;;72.87;3.80;;;22.70;21.70;;;;;;5078828;28;20406;-82
2022/07/29 10:19:30;;;;;;;72.53;3.90;;;22.80;18.10;;;;;;5078710;28;20479;-82
2022/07/29 10:22:00;;;;;;;66.70;3.83;;;22.90;17.70;;;;;;5078425;28;20414;-82
2022/07/29 10:24:27;;;;;;;70.30;3.67;;;22.90;16.50;;;;;;5078064;28;20409;-80
2022/07/29 10:26:58;;;;;;;67.37;3.60;;;23.00;14.80;;;;;;5077333;28;20921;-82
2022/07/29 10:29:24;;;;;;;68.67;4.03;;;23.10;9.90;;;;;;5078586;28;20429;-82
2022/07/29 10:32:09;;;;;;;77.90;4.73;;;23.20;1.00;;;;;;5078169;28;20489;-81
2022/07/29 10:35:15;;;;;;;69.20;3.43;;;23.40;2.70;;;;;;5078733;28;20394;-82
2022/07/29 10:38:18;;;;;;;67.37;4.27;;;23.50;1.00;;;;;;5077278;28;20453;-81
2022/07/29 10:41:27;;;;;;;68.27;3.93;;;23.70;2.50;;;;;;5079276;28;20799;-81
2022/07/29 10:44:06;;;;;;;68.77;4.23;;;24.10;1.70;;;;;;5078239;28;20808;-81
2022/07/29 10:46:40;;;;;;;69.60;5.30;;;24.10;1.00;;;;;;5078243;28;20390;-82
2022/07/29 10:49:17;;;;;;;70.60;5.70;;;24.10;1.00;;;;;;5078371;28;20422;-81
2022/07/29 10:51:57;;;;;;;71.13;5.57;;;24.20;1.00;;;;;;5078329;28;20413;-82
2022/07/29 10:54:34;;;;;;;68.40;5.40;;;24.40;1.00;;;;;;5078227;28;20777;-82
2022/07/29 10:57:13;;;;;;;68.80;4.80;;;24.40;1.00;;;;;;5078122;28;20796;-82
2022/07/29 10:59:40;;;;;;;72.50;4.40;;;24.50;1.00;;;;;;5077170;28;20426;-82
2022/07/29 11:02:36;;;;;;;73.00;4.67;;;24.60;1.00;;;;;;5078380;28;20406;-83
2022/07/29 11:05:13;;;;;;;72.60;4.33;;;24.60;1.00;;;;;;5077575;28;20372;-82
2022/07/29 11:08:00;;;;;;;70.77;4.70;;;24.60;1.00;;;;;;5078358;28;20463;-82
2022/07/29 11:10:26;;;;;;;67.37;4.40;;;24.60;1.00;;;;;;5077500;28;20411;-82
2022/07/29 11:12:52;;;;;;;70.63;4.80;;;24.60;1.00;;;;;;5079509;28;20394;-82
2022/07/29 11:15:21;;;;;;;71.23;5.20;;;24.40;1.00;;;;;;5080234;28;20394;-82
2022/07/29 11:17:53;;;;;;;71.23;4.40;;;24.70;1.00;;;;;;5078238;28;20463;-82
2022/07/29 11:20:45;;;;;;;68.47;4.87;;;25.00;1.00;;;;;;5079916;28;20401;-82
2022/07/29 11:23:18;;;;;;;69.37;4.80;;;25.30;1.00;;;;;;5077975;28;20380;-82
2022/07/29 11:25:44;;;;;;;68.90;4.80;;;25.40;1.00;;;;;;5077927;28;20812;-82
2022/07/29 11:28:16;;;;;;;68.37;4.30;;;25.30;1.00;;;;;;5077566;28;20424;-82
2022/07/29 11:30:53;;;;;;;67.57;4.43;;;25.70;1.00;;;;;;5076379;28;20180;-82
2022/07/29 11:33:33;;;;;;;67.50;4.23;;;26.00;1.00;;;;;;5076383;28;20422;-81
2022/07/29 11:36:19;;;;;;;73.13;4.03;;;26.00;1.00;;;;;;5076356;28;20474;-82
2022/07/29 11:38:44;;;;;;;75.50;4.90;;;25.90;1.00;;;;;;5076621;28;20488;-81
2022/07/29 11:41:23;;;;;;;68.33;3.50;;;25.90;1.00;;;;;;5077604;28;20406;-82
2022/07/29 11:44:00;;;;;;;68.40;3.33;;;26.00;1.00;;;;;;5076858;28;20168;-82
2022/07/29 11:46:49;;;;;;;71.07;3.93;;;25.90;1.00;;;;;;5076302;28;20593;-82
2022/07/29 11:49:22;;;;;;;67.23;3.70;;;25.70;1.00;;;;;;5075314;28;20472;-82
2022/07/29 11:51:53;;;;;;;67.67;3.37;;;25.70;1.00;;;;;;5077337;28;20427;-82
2022/07/29 11:54:26;;;;;;;69.63;4.33;;;25.50;1.00;;;;;;5075820;28;20505;-82
2022/07/29 11:56:52;;;;;;;69.27;3.40;;;25.40;1.00;;;;;;5076544;28;20377;-82
2022/07/29 11:59:19;;;;;;;71.20;3.60;;;25.40;1.00;;;;;;5075762;28;20453;-81
2022/07/29 12:01:56;;;;;;;68.10;3.50;;;25.60;1.00;;;;;;5077323;28;20406;-82
2022/07/29 12:04:26;;;;;;;69.00;3.50;;;25.60;1.00;;;;;;5076971;28;20403;-82
2022/07/29 12:06:56;;;;;;;71.23;4.13;;;25.60;1.00;;;;;;5075925;28;20940;-82
2022/07/29 12:09:23;;;;;;;71.93;4.30;;;25.50;1.00;;;;;;5076586;28;20420;-81
2022/07/29 12:11:55;;;;;;;68.57;3.70;;;25.40;1.00;;;;;;5076449;28;20426;-81
2022/07/29 12:14:32;;;;;;;67.80;3.93;;;25.30;1.00;;;;;;5076238;28;20436;-81
2022/07/29 12:16:59;;;;;;;69.03;4.20;;;25.60;1.00;;;;;;5076990;28;20763;-83
2022/07/29 12:19:25;;;;;;;67.60;3.47;;;25.50;1.00;;;;;;5076931;28;20425;-82
2022/07/29 12:21:53;;;;;;;67.00;3.40;;;25.40;1.00;;;;;;5075932;28;20413;-82
2022/07/29 12:24:19;;;;;;;75.87;4.50;;;25.50;1.00;;;;;;5078137;28;21016;-83
2022/07/29 12:26:58;;;;;;;66.80;3.37;;;25.70;1.00;;;;;;5077655;28;20912;-83
2022/07/29 12:29:26;;;;;;;72.50;3.80;;;26.00;1.00;;;;;;5075971;28;20485;-83
2022/07/29 12:31:53;;;;;;;68.33;4.43;;;26.30;1.00;;;;;;5077509;28;20412;-83
2022/07/29 12:34:22;;;;;;;67.90;3.63;;;26.40;1.00;;;;;;5077751;28;20405;-82
2022/07/29 12:36:49;;;;;;;69.53;3.10;;;26.20;1.00;;;;;;5076810;28;20410;-83
2022/07/29 12:39:17;;;;;;;69.53;3.50;;;26.10;1.00;;;;;;5076341;28;20547;-83
2022/07/29 12:41:43;;;;;;;68.70;3.50;;;26.20;1.00;;;;;;5077943;28;20463;-83
2022/07/29 12:44:10;;;;;;;73.30;3.53;;;26.10;1.00;;;;;;5076501;28;20493;-82
2022/07/29 12:46:36;;;;;;;73.43;3.37;;;26.20;1.00;;;;;;5076073;28;20397;-82
2022/07/29 12:49:02;;;;;;;77.60;3.33;;;26.00;1.00;;;;;;5075986;28;20428;-83
2022/07/29 12:51:33;;;;;;;69.80;3.57;;;26.10;1.00;;;;;;5075292;28;20186;-83
2022/07/29 12:54:08;;;;;;;69.63;3.23;;;26.20;1.00;;;;;;5076051;28;20390;-82
2022/07/29 12:56:34;;;;;;;68.60;3.60;;;26.30;1.00;;;;;;5076299;28;20484;-82
2022/07/29 12:59:00;;;;;;;67.83;3.63;;;26.30;1.00;;;;;;5075061;28;21059;-82
2022/07/29 13:01:27;;;;;;;67.90;4.37;;;26.20;1.00;;;;;;5075856;28;20449;-83
2022/07/29 13:04:01;;;;;;;71.47;4.90;;;26.20;1.00;;;;;;5076266;28;20183;-83